Time;durP1;ratioP1;P1;durP2;ratioP2;P2;SDS_P1;SDS_P2;PMS_P1;PMS_P2;Temp;Humidity;BMP_temperature;BMP_pressure;BME280_temperature;BME280_humidity;BME280_pressure;Samples;Min_cycle;Max_cycle;Signal;HPM_P1;HPM_P2
2024/03/16 00:00:36;;;;;;;;;1.00;0.00;;;;;23.54;45.50;101331.81;4920289;28;45566;-75
2024/03/16 00:03:02;;;;;;;;;0.00;0.00;;;;;23.56;46.19;101328.97;4919978;28;45363;-73
2024/03/16 00:05:27;;;;;;;;;0.00;0.00;;;;;23.49;45.77;101321.75;4919071;28;45431;-76
2024/03/16 00:07:53;;;;;;;;;0.00;0.00;;;;;23.55;45.82;101336.09;4920093;28;45616;-76
2024/03/16 00:10:19;;;;;;;;;0.00;0.00;;;;;23.54;46.17;101334.47;4920320;28;45350;-73
2024/03/16 00:12:44;;;;;;;;;0.00;0.00;;;;;23.48;46.23;101335.16;4919440;28;45969;-76
2024/03/16 00:15:10;;;;;;;;;2.00;0.00;;;;;23.56;46.42;101358.19;4929257;28;45387;-74
2024/03/16 00:17:36;;;;;;;;;0.00;0.00;;;;;23.54;46.16;101347.75;4939431;28;45430;-76
2024/03/16 00:20:03;;;;;;;;;0.00;0.00;;;;;23.50;46.46;101344.63;4939199;28;45297;-76
2024/03/16 00:22:28;;;;;;;;;0.00;0.00;;;;;23.52;46.36;101353.22;4939006;28;47060;-76
2024/03/16 00:24:53;;;;;;;;;1.33;0.00;;;;;23.54;46.41;101350.41;4939143;28;45406;-76
2024/03/16 00:27:19;;;;;;;;;0.00;0.00;;;;;23.49;46.09;101350.09;4938974;28;45311;-76
2024/03/16 00:29:44;;;;;;;;;0.00;0.00;;;;;23.50;45.93;101360.56;4936636;28;45464;-76
2024/03/16 00:32:10;;;;;;;;;1.33;0.00;;;;;23.43;45.83;101354.28;4919479;28;47942;-76
2024/03/16 00:34:35;;;;;;;;;0.00;0.00;;;;;23.54;46.15;101362.84;4919465;28;45382;-75
2024/03/16 00:37:04;;;;;;;;;0.00;0.00;;;;;23.51;45.91;101372.84;4919414;28;46042;-75
2024/03/16 00:39:30;;;;;;;;;0.33;0.33;;;;;23.49;46.50;101385.47;4919733;28;45400;-76
2024/03/16 00:41:58;;;;;;;;;1.00;0.00;;;;;23.49;46.32;101381.97;4919004;28;45574;-75
2024/03/16 00:44:24;;;;;;;;;0.33;0.00;;;;;23.44;46.29;101384.31;4919465;28;45503;-75
2024/03/16 00:46:49;;;;;;;;;0.67;0.67;;;;;23.47;46.09;101389.28;4919742;28;45391;-73
2024/03/16 00:49:14;;;;;;;;;0.00;0.00;;;;;23.46;45.50;101401.72;4919441;28;47039;-75
2024/03/16 00:51:41;;;;;;;;;0.00;0.00;;;;;23.48;45.92;101401.53;4917967;28;45927;-75
2024/03/16 00:54:06;;;;;;;;;1.00;0.00;;;;;23.48;45.41;101412.16;4919482;28;45447;-77
2024/03/16 00:56:31;;;;;;;;;1.00;0.00;;;;;23.46;45.58;101412.34;4918887;28;45365;-76
2024/03/16 00:58:56;;;;;;;;;1.00;0.00;;;;;23.47;45.20;101411.31;4919363;28;45382;-73
2024/03/16 01:01:22;;;;;;;;;0.33;0.00;;;;;23.47;45.56;101421.94;4919240;28;47741;-73
2024/03/16 01:03:47;;;;;;;;;0.00;0.00;;;;;23.47;45.57;101423.81;4919311;28;45459;-75
2024/03/16 01:06:13;;;;;;;;;0.00;0.00;;;;;23.46;45.61;101427.44;4919415;28;45336;-75
2024/03/16 01:08:38;;;;;;;;;0.00;0.00;;;;;23.45;45.23;101439.91;4919356;28;46015;-75
2024/03/16 01:11:05;;;;;;;;;0.00;0.00;;;;;23.43;45.13;101439.25;4918550;28;46455;-75
2024/03/16 01:13:31;;;;;;;;;0.00;0.00;;;;;23.44;45.77;101440.91;4919182;28;45375;-74
2024/03/16 01:15:56;;;;;;;;;0.00;0.00;;;;;23.42;45.93;101445.56;4918778;28;45471;-75
2024/03/16 01:18:21;;;;;;;;;0.00;0.00;;;;;23.40;45.35;101452.88;4918635;28;51095;-76
2024/03/16 01:20:47;;;;;;;;;0.00;0.00;;;;;23.37;45.85;101451.38;4919044;28;46311;-75
2024/03/16 01:23:16;;;;;;;;;0.00;0.00;;;;;23.36;45.57;101455.06;4919046;28;45327;-76
2024/03/16 01:25:42;;;;;;;;;0.00;0.00;;;;;23.29;45.65;101438.97;4918828;28;45256;-76
2024/03/16 01:28:07;;;;;;;;;0.00;0.00;;;;;23.34;45.35;101465.00;4918917;28;45296;-75
2024/03/16 01:30:32;;;;;;;;;0.00;0.00;;;;;23.27;45.78;101456.94;4918883;28;45275;-75
2024/03/16 01:32:58;;;;;;;;;0.00;0.00;;;;;23.33;45.77;101470.50;4918848;28;45359;-76
2024/03/16 01:35:23;;;;;;;;;1.33;0.00;;;;;23.31;45.85;101464.56;4918895;28;45320;-75
2024/03/16 01:37:49;;;;;;;;;0.00;0.00;;;;;23.32;45.54;101466.19;4918871;28;45292;-75
2024/03/16 01:40:15;;;;;;;;;1.00;0.00;;;;;23.15;45.70;101445.03;4918182;28;47381;-76
2024/03/16 01:42:40;;;;;;;;;0.00;0.00;;;;;23.29;45.62;101470.84;4918766;28;45288;-76
2024/03/16 01:45:17;;;;;;;;;0.00;0.00;;;;;23.30;45.16;101479.66;4918816;28;45386;-75
2024/03/16 01:47:43;;;;;;;;;1.00;0.00;;;;;23.31;45.23;101488.44;4918748;28;45453;-74
2024/03/16 01:50:08;;;;;;;;;1.00;0.00;;;;;23.31;45.52;101485.78;4918515;28;45711;-75
2024/03/16 01:52:34;;;;;;;;;0.00;0.00;;;;;23.25;45.63;101476.69;4918141;28;45534;-75
2024/03/16 01:55:00;;;;;;;;;3.33;0.00;;;;;23.23;45.34;101484.00;4918555;28;45303;-76
2024/03/16 01:57:25;;;;;;;;;0.00;0.00;;;;;23.28;45.54;101494.94;4918659;28;45455;-76
2024/03/16 01:59:50;;;;;;;;;0.00;0.00;;;;;23.27;45.49;101495.91;4918354;28;49919;-74
2024/03/16 02:02:41;;;;;;;;;2.00;0.00;;;;;23.26;45.44;101503.03;4918506;28;45339;-75
2024/03/16 02:05:07;;;;;;;;;0.00;0.00;;;;;23.26;45.54;101495.06;4918568;28;45410;-73
2024/03/16 02:07:34;;;;;;;;;0.00;0.00;;;;;23.21;45.66;101484.19;4918076;28;45360;-74
2024/03/16 02:10:00;;;;;;;;;0.00;0.00;;;;;23.26;45.18;101497.75;4918283;28;46085;-75
2024/03/16 02:12:26;;;;;;;;;0.00;0.00;;;;;23.26;45.75;101500.38;4918083;28;45487;-76
2024/03/16 02:14:51;;;;;;;;;1.00;0.00;;;;;23.24;45.55;101499.75;4918120;28;45400;-75
2024/03/16 02:17:17;;;;;;;;;0.00;0.00;;;;;23.26;45.59;101502.25;4918437;28;45390;-75
2024/03/16 02:19:43;;;;;;;;;0.00;0.00;;;;;23.26;45.27;101497.75;4918199;28;47089;-76
2024/03/16 02:22:08;;;;;;;;;1.00;0.00;;;;;23.22;45.62;101504.41;4917859;28;45414;-75
2024/03/16 02:24:35;;;;;;;;;0.00;0.00;;;;;23.26;45.19;101507.56;4918307;28;45400;-75
2024/03/16 02:27:00;;;;;;;;;0.00;0.00;;;;;23.27;45.13;101506.53;4918396;28;45344;-76
2024/03/16 02:29:32;;;;;;;;;0.00;0.00;;;;;23.26;45.55;101511.00;4919910;28;45424;-76
2024/03/16 02:31:58;;;;;;;;;0.00;0.00;;;;;23.21;45.42;101507.25;4921509;28;45384;-75
2024/03/16 02:34:23;;;;;;;;;0.67;0.00;;;;;23.26;45.09;101512.88;4921659;28;45322;-75
2024/03/16 02:36:49;;;;;;;;;0.00;0.00;;;;;23.26;45.34;101516.31;4921425;28;45444;-75
2024/03/16 02:39:14;;;;;;;;;0.00;0.00;;;;;23.25;45.19;101520.00;4921357;28;45950;-75
2024/03/16 02:41:40;;;;;;;;;0.00;0.00;;;;;23.25;45.60;101527.13;4921412;28;46463;-77
2024/03/16 02:44:05;;;;;;;;;0.00;0.00;;;;;23.25;45.32;101521.81;4921654;28;45295;-75
2024/03/16 02:46:31;;;;;;;;;0.00;0.00;;;;;23.24;45.46;101523.63;4921504;28;45317;-75
2024/03/16 02:48:56;;;;;;;;;0.00;0.00;;;;;23.17;45.53;101512.88;4919976;28;47098;-75
2024/03/16 02:51:22;;;;;;;;;0.00;0.00;;;;;23.24;45.70;101530.75;4921072;28;45381;-74
2024/03/16 02:53:47;;;;;;;;;0.00;0.00;;;;;23.22;45.57;101533.59;4921299;28;45399;-75
2024/03/16 02:56:13;;;;;;;;;0.00;0.00;;;;;23.22;45.09;101533.59;4921055;28;45375;-75
2024/03/16 02:58:39;;;;;;;;;0.00;0.00;;;;;23.21;45.42;101533.78;4921091;28;46494;-74
2024/03/16 03:01:04;;;;;;;;;0.00;0.00;;;;;23.16;45.42;101529.00;4921243;28;45653;-74
2024/03/16 03:03:30;;;;;;;;;0.00;0.00;;;;;23.20;44.92;101538.25;4921298;28;45352;-75
2024/03/16 03:05:55;;;;;;;;;0.00;0.00;;;;;23.14;45.35;101531.81;4920871;28;45541;-76
2024/03/16 03:08:21;;;;;;;;;0.00;0.00;;;;;23.22;45.53;101548.69;4921023;28;45340;-75
2024/03/16 03:10:46;;;;;;;;;0.00;0.00;;;;;23.20;45.23;101542.75;4920800;28;45386;-75
2024/03/16 03:13:12;;;;;;;;;0.00;0.00;;;;;23.21;45.19;101541.75;4921119;28;45342;-76
2024/03/16 03:15:37;;;;;;;;;1.00;0.00;;;;;23.21;45.22;101539.09;4921003;28;45393;-76
2024/03/16 03:18:03;;;;;;;;;0.00;0.00;;;;;23.21;45.10;101536.44;4920881;28;46309;-76
2024/03/16 03:20:28;;;;;;;;;0.00;0.00;;;;;23.21;45.35;101539.09;4920748;28;45352;-75
2024/03/16 03:22:54;;;;;;;;;0.00;0.00;;;;;23.21;45.32;101547.06;4921097;28;45398;-75
2024/03/16 03:25:21;;;;;;;;;1.00;0.00;;;;;23.20;45.24;101548.88;4921027;28;45285;-75
2024/03/16 03:27:46;;;;;;;;;0.33;0.33;;;;;23.20;45.25;101543.56;4920617;28;46240;-75
2024/03/16 03:30:12;;;;;;;;;1.00;0.00;;;;;23.14;45.18;101542.41;4920583;28;45343;-76
2024/03/16 03:32:37;;;;;;;;;0.00;0.00;;;;;23.21;45.36;101553.19;4920798;28;45379;-75
2024/03/16 03:35:03;;;;;;;;;0.00;0.00;;;;;23.21;45.51;101563.00;4920328;28;45491;-75
2024/03/16 03:37:29;;;;;;;;;0.00;0.00;;;;;23.16;45.12;101553.69;4920563;28;45900;-76
2024/03/16 03:39:54;;;;;;;;;0.00;0.00;;;;;23.21;45.44;101560.34;4920395;28;45395;-76
2024/03/16 03:42:24;;;;;;;;;0.00;0.00;;;;;23.19;45.28;101565.78;4920757;28;45292;-75
2024/03/16 03:45:00;;;;;;;;;0.00;0.00;;;;;23.18;44.77;101570.31;4920680;28;45373;-75
2024/03/16 03:47:40;;;;;;;;;0.00;0.00;;;;;23.21;45.27;101584.22;4920330;28;46922;-75
2024/03/16 03:50:06;;;;;;;;;0.00;0.00;;;;;23.12;44.87;101572.78;4920069;28;45363;-76
2024/03/16 03:52:32;;;;;;;;;1.00;1.00;;;;;23.14;44.71;101581.41;4920428;28;45367;-75
2024/03/16 03:54:57;;;;;;;;;0.00;0.00;;;;;23.19;45.47;101597.66;4920244;28;45420;-76
2024/03/16 03:57:22;;;;;;;;;0.00;0.00;;;;;23.17;45.33;101597.84;4920061;28;46910;-73
2024/03/16 03:59:48;;;;;;;;;0.00;0.00;;;;;23.19;45.15;101605.63;4920326;28;45436;-75
2024/03/16 04:02:13;;;;;;;;;1.00;0.00;;;;;23.18;44.82;101602.16;4920415;28;45357;-76
2024/03/16 04:04:40;;;;;;;;;0.00;0.00;;;;;23.17;45.13;101600.50;4920016;28;45360;-76
2024/03/16 04:07:05;;;;;;;;;1.00;1.00;;;;;23.18;44.66;101598.66;4920080;28;46251;-76
2024/03/16 04:09:31;;;;;;;;;0.00;0.00;;;;;23.14;44.91;101606.13;4920029;28;45251;-76
2024/03/16 04:11:56;;;;;;;;;0.00;0.00;;;;;23.16;45.35;101616.59;4920123;28;45252;-75
2024/03/16 04:14:22;;;;;;;;;0.00;0.00;;;;;23.16;45.24;101620.06;4920126;28;45330;-75
2024/03/16 04:16:48;;;;;;;;;0.00;0.00;;;;;23.16;45.17;101620.06;4919863;28;47240;-75
2024/03/16 04:19:14;;;;;;;;;0.00;0.00;;;;;23.17;45.18;101624.38;4919645;28;45358;-76
2024/03/16 04:21:42;;;;;;;;;0.00;0.00;;;;;23.17;45.37;101631.50;4920027;28;45572;-75
2024/03/16 04:24:07;;;;;;;;;1.00;0.00;;;;;23.17;44.88;101631.50;4919934;28;45292;-76
2024/03/16 04:26:32;;;;;;;;;0.00;0.00;;;;;23.16;44.83;101641.28;4919744;28;45419;-75
2024/03/16 04:28:58;;;;;;;;;0.67;0.00;;;;;23.16;45.42;101638.63;4919719;28;45337;-76
2024/03/16 04:31:23;;;;;;;;;1.00;0.00;;;;;23.14;44.94;101642.47;4920004;28;45360;-76
2024/03/16 04:33:48;;;;;;;;;0.00;0.00;;;;;23.11;45.26;101640.16;4919546;28;45284;-76
2024/03/16 04:36:14;;;;;;;;;0.00;0.00;;;;;23.14;45.02;101659.22;4919611;28;46056;-75
2024/03/16 04:38:39;;;;;;;;;0.00;0.00;;;;;23.14;45.12;101658.38;4919775;28;45385;-76
2024/03/16 04:41:04;;;;;;;;;0.00;0.00;;;;;23.05;45.20;101649.63;4919827;28;45180;-75
2024/03/16 04:43:30;;;;;;;;;1.00;0.00;;;;;23.11;45.26;101664.84;4919981;28;45330;-76
2024/03/16 04:45:56;;;;;;;;;0.00;0.00;;;;;23.15;44.85;101675.97;4919415;28;46284;-77
2024/03/16 04:48:21;;;;;;;;;2.00;0.00;;;;;23.16;44.99;101675.00;4919197;28;45331;-75
2024/03/16 04:50:46;;;;;;;;;0.00;0.00;;;;;23.09;44.63;101666.84;4919434;28;45367;-75
2024/03/16 04:53:12;;;;;;;;;0.00;0.00;;;;;23.17;45.03;101679.28;4919116;28;45367;-75
2024/03/16 04:55:39;;;;;;;;;0.00;0.00;;;;;23.04;45.08;101667.38;4919156;28;45957;-75
2024/03/16 04:58:06;;;;;;;;;0.00;0.00;;;;;23.16;44.72;101681.09;4919612;28;45360;-74
2024/03/16 05:00:31;;;;;;;;;0.00;0.00;;;;;23.17;45.03;101687.25;4919469;28;46201;-75
2024/03/16 05:02:57;;;;;;;;;1.00;0.00;;;;;23.12;44.67;101681.63;4919093;28;45388;-75
2024/03/16 05:05:22;;;;;;;;;0.00;0.00;;;;;23.16;44.89;101693.56;4919221;28;46192;-75
2024/03/16 05:07:48;;;;;;;;;0.00;0.00;;;;;23.16;44.93;101689.06;4917978;28;45425;-75
2024/03/16 05:10:13;;;;;;;;;0.00;0.00;;;;;23.13;44.63;101689.44;4919608;28;45274;-74
2024/03/16 05:12:39;;;;;;;;;0.00;0.00;;;;;23.14;45.12;101704.34;4919132;28;45349;-75
2024/03/16 05:15:04;;;;;;;;;0.00;0.00;;;;;23.15;45.00;101703.34;4918959;28;45327;-74
2024/03/16 05:17:31;;;;;;;;;0.00;0.00;;;;;23.15;44.90;101707.84;4918922;28;45217;-75
2024/03/16 05:19:57;;;;;;;;;0.00;0.00;;;;;23.14;44.87;101707.00;4919269;28;45426;-75
2024/03/16 05:22:23;;;;;;;;;0.00;0.00;;;;;23.15;45.05;101721.09;4919048;28;45304;-75
2024/03/16 05:24:48;;;;;;;;;0.00;0.00;;;;;23.15;45.29;101734.38;4918927;28;46314;-74
2024/03/16 05:27:15;;;;;;;;;0.00;0.00;;;;;23.13;44.69;101720.44;4918969;28;45494;-74
2024/03/16 05:29:40;;;;;;;;;0.00;0.00;;;;;23.14;44.87;101724.75;4919154;28;45484;-74
2024/03/16 05:32:05;;;;;;;;;0.00;0.00;;;;;23.13;45.20;101739.88;4918600;28;45514;-75
2024/03/16 05:34:31;;;;;;;;;0.33;0.00;;;;;23.13;44.56;101734.56;4918779;28;46134;-74
2024/03/16 05:36:57;;;;;;;;;0.00;0.00;;;;;23.14;45.11;101741.50;4917555;28;45661;-75
2024/03/16 05:39:23;;;;;;;;;1.00;1.00;;;;;23.13;44.80;101741.69;4919014;28;45343;-75
2024/03/16 05:41:49;;;;;;;;;0.00;0.00;;;;;23.13;44.66;101752.31;4918746;28;45275;-74
2024/03/16 05:44:14;;;;;;;;;0.00;0.00;;;;;23.04;44.62;101746.16;4918652;28;47374;-74
2024/03/16 05:46:40;;;;;;;;;0.00;0.00;;;;;23.03;44.94;101745.31;4918556;28;45414;-75
2024/03/16 05:49:05;;;;;;;;;0.00;0.00;;;;;22.80;44.92;101716.78;4918804;28;45311;-77
2024/03/16 05:51:30;;;;;;;;;0.00;0.00;;;;;23.06;45.10;101765.38;4918797;28;45294;-75
2024/03/16 05:53:56;;;;;;;;;0.00;0.00;;;;;23.11;45.20;101775.53;4918456;28;47069;-75
2024/03/16 05:56:21;;;;;;;;;0.00;0.00;;;;;22.80;45.12;101723.91;4918398;28;45300;-74
2024/03/16 05:58:47;;;;;;;;;0.00;0.00;;;;;23.13;45.22;101784.16;4918729;28;45346;-75
2024/03/16 06:01:12;;;;;;;;;0.00;0.00;;;;;23.12;44.89;101780.66;4918419;28;45386;-75
2024/03/16 06:03:38;;;;;;;;;0.00;0.00;;;;;23.13;44.99;101779.69;4917325;28;46992;-75
2024/03/16 06:06:03;;;;;;;;;0.00;0.00;;;;;23.13;44.63;101778.84;4918641;28;45388;-73
2024/03/16 06:08:29;;;;;;;;;0.00;0.00;;;;;23.07;44.72;101785.63;4918754;28;45356;-75
2024/03/16 06:10:55;;;;;;;;;0.00;0.00;;;;;23.10;44.58;101787.97;4919627;28;45506;-77
2024/03/16 06:13:20;;;;;;;;;0.00;0.00;;;;;23.07;44.84;101788.28;4919393;28;45297;-75
2024/03/16 06:15:46;;;;;;;;;0.00;0.00;;;;;22.99;44.47;101780.31;4918967;28;45390;-75
2024/03/16 06:18:11;;;;;;;;;0.00;0.00;;;;;23.10;44.96;101792.44;4918543;28;45337;-76
2024/03/16 06:20:37;;;;;;;;;2.00;0.00;;;;;23.13;44.76;101802.75;4918577;28;45543;-75
2024/03/16 06:23:03;;;;;;;;;0.00;0.00;;;;;23.14;44.26;101805.22;4918265;28;46370;-75
2024/03/16 06:25:29;;;;;;;;;0.00;0.00;;;;;23.12;44.34;101806.38;4918256;28;45465;-76
2024/03/16 06:27:55;;;;;;;;;0.00;0.00;;;;;23.14;44.66;101820.31;4918264;28;45426;-74
2024/03/16 06:30:27;;;;;;;;;1.00;0.00;;;;;23.14;44.45;101815.00;4918184;28;45589;-75
2024/03/16 06:33:05;;;;;;;;;1.00;0.00;;;;;23.13;44.30;101822.16;4918033;28;46145;-75
2024/03/16 06:35:31;;;;;;;;;0.00;0.00;;;;;23.13;44.37;101834.59;4917990;28;45418;-75
2024/03/16 06:37:57;;;;;;;;;0.67;0.00;;;;;23.12;44.74;101835.56;4918095;28;45384;-75
2024/03/16 06:40:22;;;;;;;;;0.00;0.00;;;;;23.04;44.72;101823.94;4918083;28;45372;-75
2024/03/16 06:42:47;;;;;;;;;0.00;0.00;;;;;23.05;44.81;101822.13;4917648;28;47351;-74
2024/03/16 06:45:14;;;;;;;;;0.00;0.00;;;;;23.13;44.54;101831.94;4917987;28;45316;-74
2024/03/16 06:47:39;;;;;;;;;0.00;0.00;;;;;23.11;44.66;101837.38;4918083;28;45327;-74
2024/03/16 06:50:06;;;;;;;;;0.00;0.00;;;;;23.13;44.78;101842.56;4918003;28;45547;-74
2024/03/16 06:52:32;;;;;;;;;0.00;0.00;;;;;23.12;44.18;101847.03;4917762;28;46316;-74
2024/03/16 06:54:57;;;;;;;;;1.00;0.00;;;;;23.12;44.25;101857.66;4917571;28;45299;-74
2024/03/16 06:57:23;;;;;;;;;3.00;0.00;;;;;23.11;44.20;101861.28;4917431;28;45314;-75
2024/03/16 06:59:48;;;;;;;;;0.67;0.00;;;;;23.11;44.84;101863.94;4917988;28;45264;-75
2024/03/16 07:02:13;;;;;;;;;0.67;0.00;;;;;23.12;44.72;101860.31;4917831;28;45340;-75
2024/03/16 07:04:39;;;;;;;;;0.00;0.00;;;;;23.12;44.56;101862.94;4917779;28;45276;-74
2024/03/16 07:07:04;;;;;;;;;0.00;0.00;;;;;23.00;44.34;101849.19;4917643;28;45245;-75
2024/03/16 07:09:29;;;;;;;;;0.00;0.00;;;;;23.11;44.36;101863.94;4917913;28;45439;-75
2024/03/16 07:11:56;;;;;;;;;0.00;0.00;;;;;23.13;44.00;101877.06;4916948;28;46061;-75
2024/03/16 07:14:21;;;;;;;;;0.00;0.00;;;;;23.04;44.52;101857.63;4917828;28;45431;-75
2024/03/16 07:16:46;;;;;;;;;0.00;0.00;;;;;23.08;44.15;101869.59;4920881;28;45359;-74
2024/03/16 07:19:12;;;;;;;;;2.00;0.00;;;;;23.14;44.27;101882.19;4920897;28;45296;-75
2024/03/16 07:21:37;;;;;;;;;0.00;0.00;;;;;22.84;43.99;101834.88;4920845;28;45309;-75
2024/03/16 07:24:03;;;;;;;;;0.00;0.00;;;;;23.09;44.31;101879.19;4920860;28;45388;-75
2024/03/16 07:26:29;;;;;;;;;1.00;1.00;;;;;23.14;44.00;101889.31;4920505;28;45323;-75
2024/03/16 07:28:55;;;;;;;;;0.00;0.00;;;;;23.13;44.18;101888.53;4920896;28;45422;-74
2024/03/16 07:31:21;;;;;;;;;0.00;0.00;;;;;23.14;43.68;101900.78;4920647;28;47051;-76
2024/03/16 07:33:46;;;;;;;;;0.00;0.00;;;;;23.10;43.87;101903.94;4920285;28;46308;-75
2024/03/16 07:36:12;;;;;;;;;1.00;0.00;;;;;23.16;44.16;101906.75;4920627;28;45355;-75
2024/03/16 07:38:38;;;;;;;;;2.00;0.00;;;;;23.17;44.33;101904.94;4920491;28;45260;-74
2024/03/16 07:41:04;;;;;;;;;0.00;0.00;;;;;23.17;44.23;101904.94;4919930;28;47334;-74
2024/03/16 07:43:30;;;;;;;;;1.67;0.00;;;;;23.17;44.54;101908.44;4920392;28;45277;-73
2024/03/16 07:45:56;;;;;;;;;0.00;0.00;;;;;23.16;44.16;101901.44;4920645;28;45319;-74
2024/03/16 07:48:22;;;;;;;;;0.00;0.00;;;;;23.14;44.03;101895.47;4920573;28;45343;-74
2024/03/16 07:50:47;;;;;;;;;2.00;0.33;;;;;23.21;44.33;101922.22;4920291;28;47142;-74
2024/03/16 07:53:12;;;;;;;;;0.00;0.00;;;;;23.21;43.95;101927.53;4920369;28;45308;-74
2024/03/16 07:55:38;;;;;;;;;0.00;0.00;;;;;23.16;44.46;101922.69;4919815;28;45496;-73
2024/03/16 07:58:03;;;;;;;;;0.00;0.00;;;;;23.22;44.21;101934.47;4920217;28;45906;-74
2024/03/16 08:00:29;;;;;;;;;1.00;1.00;;;;;23.23;44.03;101946.78;4920357;28;45336;-74
2024/03/16 08:02:54;;;;;;;;;1.00;0.00;;;;;23.24;44.21;101950.25;4920223;28;45544;-73
2024/03/16 08:05:20;;;;;;;;;0.00;0.00;;;;;22.83;44.65;101885.44;4920457;28;45401;-73
2024/03/16 08:07:47;;;;;;;;;0.00;0.00;;;;;23.24;44.52;101961.69;4920279;28;45320;-74
2024/03/16 08:10:13;;;;;;;;;0.00;0.00;;;;;23.21;44.43;101956.72;4919781;28;46366;-74
2024/03/16 08:12:38;;;;;;;;;0.00;0.00;;;;;23.17;44.12;101950.06;4919926;28;45397;-73
2024/03/16 08:15:05;;;;;;;;;1.00;1.00;;;;;23.24;44.38;101968.81;4920044;28;45347;-74
2024/03/16 08:17:31;;;;;;;;;0.00;0.00;;;;;23.15;44.16;101960.03;4920127;28;45551;-74
2024/03/16 08:19:57;;;;;;;;;0.00;0.00;;;;;23.26;44.18;101983.59;4919892;28;46230;-74
2024/03/16 08:22:23;;;;;;;;;0.00;0.00;;;;;23.27;44.31;101993.25;4919970;28;45312;-74
2024/03/16 08:24:48;;;;;;;;;0.00;0.00;;;;;23.26;44.64;101994.22;4919750;28;45510;-74
2024/03/16 08:27:13;;;;;;;;;0.00;0.00;;;;;23.27;44.44;102001.22;4917656;28;45442;-74
2024/03/16 08:29:39;;;;;;;;;0.00;0.00;;;;;23.27;44.16;102006.53;4919735;28;46249;-74
2024/03/16 08:32:05;;;;;;;;;0.00;0.00;;;;;23.27;44.43;101997.72;4919875;28;45426;-74
2024/03/16 08:34:30;;;;;;;;;0.33;0.00;;;;;23.27;44.28;102009.19;4919948;28;45406;-74
2024/03/16 08:36:55;;;;;;;;;0.00;0.00;;;;;23.22;44.06;102000.84;4919795;28;45334;-74
2024/03/16 08:39:23;;;;;;;;;0.00;0.00;;;;;23.29;43.86;102011.66;4919475;28;45664;-74
2024/03/16 08:41:48;;;;;;;;;0.00;0.00;;;;;23.27;43.76;102009.19;4919529;28;45519;-74
2024/03/16 08:44:13;;;;;;;;;0.00;0.00;;;;;23.30;43.74;102013.34;4919720;28;45256;-74
2024/03/16 08:46:39;;;;;;;;;0.00;0.00;;;;;23.23;43.88;102009.66;4919716;28;45334;-74
2024/03/16 08:49:05;;;;;;;;;2.00;1.00;;;;;23.31;44.30;102030.09;4919340;28;46909;-74
2024/03/16 08:51:30;;;;;;;;;0.00;0.00;;;;;23.30;43.97;102031.91;4919637;28;45582;-74
2024/03/16 08:53:55;;;;;;;;;0.00;0.00;;;;;23.25;44.33;102028.91;4919209;28;45378;-74
2024/03/16 08:56:23;;;;;;;;;0.00;0.00;;;;;23.25;44.20;102029.75;4919301;28;45459;-74
2024/03/16 08:58:49;;;;;;;;;0.00;0.00;;;;;23.28;43.96;102034.75;4919315;28;47248;-74
2024/03/16 09:01:14;;;;;;;;;0.00;0.00;;;;;23.30;44.32;102031.91;4919281;28;45788;-74
2024/03/16 09:03:40;;;;;;;;;0.00;0.00;;;;;23.20;43.92;102018.78;4919492;28;45501;-74
2024/03/16 09:06:07;;;;;;;;;0.00;0.00;;;;;23.29;43.94;102039.06;4919443;28;45271;-73
2024/03/16 09:08:32;;;;;;;;;0.00;0.00;;;;;23.28;44.04;102032.09;4917597;28;47172;-73
2024/03/16 09:10:58;;;;;;;;;0.33;0.33;;;;;23.31;44.52;102036.25;4919056;28;45344;-72
2024/03/16 09:13:24;;;;;;;;;0.00;0.00;;;;;23.33;44.07;102044.06;4919297;28;48424;-72
2024/03/16 09:15:49;;;;;;;;;0.33;0.33;;;;;23.34;44.07;102040.41;4919173;28;45447;-72
2024/03/16 09:18:14;;;;;;;;;1.00;1.00;;;;;23.37;43.97;102046.22;4918907;28;47962;-72
2024/03/16 09:20:43;;;;;;;;;0.00;0.00;;;;;23.39;44.12;102038.09;4919224;28;45273;-72
2024/03/16 09:23:09;;;;;;;;;1.67;1.00;;;;;23.36;43.80;102036.59;4918941;28;45374;-72
2024/03/16 09:25:34;;;;;;;;;2.00;0.00;;;;;23.45;44.38;102049.88;4918958;28;45358;-72
2024/03/16 09:27:59;;;;;;;;;1.00;1.00;;;;;23.46;44.11;102048.91;4919007;28;45395;-72
2024/03/16 09:30:25;;;;;;;;;1.67;0.00;;;;;23.41;44.05;102049.41;4918973;28;45385;-72
2024/03/16 09:32:50;;;;;;;;;0.67;0.67;;;;;23.49;44.04;102059.22;4919226;28;45328;-72
2024/03/16 09:35:15;;;;;;;;;0.00;0.00;;;;;23.49;43.88;102054.78;4918703;28;45598;-73
2024/03/16 09:37:41;;;;;;;;;1.00;1.00;;;;;23.47;44.00;102048.75;4918338;28;45860;-72
2024/03/16 09:40:10;;;;;;;;;0.00;0.00;;;;;23.58;43.82;102050.31;4918859;28;45477;-72
2024/03/16 09:42:39;;;;;;;;;0.00;0.00;;;;;23.63;43.92;102058.63;4918898;28;45366;-72
2024/03/16 09:45:18;;;;;;;;;1.00;0.33;;;;;23.66;43.66;102054.81;4917397;28;45346;-72
2024/03/16 09:47:47;;;;;;;;;1.00;1.00;;;;;23.73;43.61;102062.97;4918400;28;46127;-72
2024/03/16 09:50:14;;;;;;;;;4.00;1.00;;;;;23.69;43.54;102054.50;4918582;28;45408;-72
2024/03/16 09:52:40;;;;;;;;;0.00;0.00;;;;;23.82;43.68;102054.03;4918354;28;45411;-72
2024/03/16 09:55:09;;;;;;;;;0.00;0.00;;;;;23.79;42.96;102045.53;4918369;28;45228;-72
2024/03/16 09:57:36;;;;;;;;;0.33;0.33;;;;;23.91;43.41;102068.19;4918402;28;46559;-72
2024/03/16 10:00:05;;;;;;;;;1.33;0.67;;;;;23.88;43.72;102065.84;4918435;28;45343;-72
2024/03/16 10:02:32;;;;;;;;;0.00;0.00;;;;;23.95;43.15;102066.84;4933310;28;45441;-72
2024/03/16 10:04:57;;;;;;;;;2.00;0.00;;;;;23.96;43.46;102065.03;4918570;28;45423;-72
2024/03/16 10:07:22;;;;;;;;;0.67;0.33;;;;;23.98;43.19;102070.16;4917880;28;47265;-72
2024/03/16 10:09:53;;;;;;;;;1.33;0.00;;;;;23.99;43.23;102080.66;4918381;28;45401;-73
2024/03/16 10:12:19;;;;;;;;;1.00;1.00;;;;;24.00;43.36;102074.31;4918445;28;45332;-72
2024/03/16 10:15:00;;;;;;;;;2.00;0.00;;;;;23.99;43.23;102063.88;4918076;28;45323;-72
2024/03/16 10:17:29;;;;;;;;;1.00;1.00;;;;;23.99;42.99;102078.00;4918047;28;46192;-72
2024/03/16 10:19:54;;;;;;;;;2.00;1.00;;;;;23.98;42.95;102072.81;4918162;28;45493;-72
2024/03/16 10:22:20;;;;;;;;;3.00;1.00;;;;;23.99;43.20;102079.81;4917926;28;45399;-72
2024/03/16 10:24:46;;;;;;;;;3.00;1.00;;;;;23.99;43.12;102079.81;4918427;28;45352;-73
2024/03/16 10:27:12;;;;;;;;;1.00;1.00;;;;;23.87;43.14;102064.16;4918023;28;47112;-71
2024/03/16 10:29:39;;;;;;;;;0.67;0.67;;;;;23.98;43.33;102091.44;4918025;28;45320;-71
2024/03/16 10:32:06;;;;;;;;;0.00;0.00;;;;;23.96;43.28;102096.91;4918178;28;45288;-72
2024/03/16 10:34:31;;;;;;;;;3.00;0.67;;;;;23.97;42.97;102093.25;4917674;28;45461;-71
2024/03/16 10:36:58;;;;;;;;;1.00;1.00;;;;;23.98;43.00;102096.75;4917820;28;46289;-71
2024/03/16 10:39:26;;;;;;;;;1.33;1.00;;;;;23.99;42.95;102093.94;4918080;28;45423;-73
2024/03/16 10:41:52;;;;;;;;;0.33;0.33;;;;;23.98;43.12;102089.59;4918055;28;45323;-72
2024/03/16 10:44:19;;;;;;;;;2.00;1.00;;;;;23.99;42.99;102093.94;4916713;28;45518;-73
2024/03/16 10:46:44;;;;;;;;;0.00;0.00;;;;;23.98;43.22;102091.44;4917682;28;46210;-73
2024/03/16 10:49:10;;;;;;;;;0.00;0.00;;;;;23.92;43.26;102084.94;4917539;28;45411;-73
2024/03/16 10:51:35;;;;;;;;;0.33;0.33;;;;;23.85;43.17;102067.00;4921368;28;45527;-72
2024/03/16 10:54:01;;;;;;;;;1.00;1.00;;;;;23.99;43.25;102088.63;4921201;28;45541;-72
2024/03/16 10:56:32;;;;;;;;;1.00;1.00;;;;;23.93;43.32;102078.63;4920894;28;46014;-72
2024/03/16 10:58:57;;;;;;;;;1.00;0.00;;;;;23.97;43.24;102085.28;4921123;28;45491;-73
2024/03/16 11:01:23;;;;;;;;;1.00;1.00;;;;;23.98;43.33;102088.78;4921427;28;45285;-72
2024/03/16 11:03:54;;;;;;;;;1.33;1.00;;;;;23.95;43.05;102081.94;4920822;28;45363;-72
2024/03/16 11:06:21;;;;;;;;;1.00;1.00;;;;;24.05;43.24;102105.72;4921082;28;46240;-72
2024/03/16 11:08:50;;;;;;;;;0.00;0.00;;;;;24.00;43.17;102094.75;4920831;28;45420;-73
2024/03/16 11:11:18;;;;;;;;;0.00;0.00;;;;;24.04;42.92;102107.56;4920995;28;45516;-71
2024/03/16 11:14:16;;;;;;;;;2.00;0.33;;;;;24.04;43.38;102096.09;4921050;28;45350;-72
2024/03/16 11:16:47;;;;;;;;;0.00;0.00;;;;;24.05;43.06;102093.28;4901689;28;45935;-72
2024/03/16 11:19:22;;;;;;;;;0.67;0.67;;;;;24.04;43.16;102091.63;4901435;28;45419;-72